createdAt,value
2019-05-20T00:05:44.048Z,86.63
2019-05-20T00:08:12.582Z,88.37
2019-05-20T00:14:26.150Z,80.80
2019-05-20T00:16:54.721Z,83.67
2019-05-20T00:19:23.267Z,93.27
2019-05-20T00:21:51.782Z,95.20
2019-05-20T00:27:54.622Z,91.70
2019-05-20T00:30:23.223Z,109.00
2019-05-20T00:32:51.904Z,102.00
2019-05-20T00:38:26.812Z,110.30
2019-05-20T00:40:55.381Z,103.30
2019-05-20T00:43:23.974Z,103.90
2019-05-20T00:48:50.532Z,106.67
2019-05-20T00:51:18.997Z,104.73
2019-05-20T00:53:47.629Z,144.28
2019-05-20T00:56:16.214Z,130.87
2019-05-20T00:58:44.794Z,132.80
2019-05-20T01:01:13.450Z,135.07
2019-05-20T01:03:42.035Z,131.30
2019-05-20T01:06:10.632Z,140.10
2019-05-20T01:11:46.753Z,162.83
2019-05-20T01:14:15.328Z,140.13
2019-05-20T01:16:43.996Z,146.87
2019-05-20T01:19:12.556Z,149.33
2019-05-20T01:21:41.233Z,157.63
2019-05-20T01:24:15.874Z,156.27
2019-05-20T01:26:44.483Z,151.37
2019-05-20T01:29:13.056Z,148.83
2019-05-20T01:31:41.591Z,146.27
2019-05-20T01:34:10.147Z,153.60
2019-05-20T01:36:38.730Z,150.93
2019-05-20T01:39:10.385Z,143.47
2019-05-20T01:41:39.090Z,147.90
2019-05-20T01:44:07.663Z,149.17
2019-05-20T01:46:38.523Z,150.87
2019-05-20T01:49:07.280Z,159.60
2019-05-20T01:51:35.875Z,156.50
2019-05-20T01:54:04.459Z,152.37
2019-05-20T01:56:32.968Z,155.03
2019-05-20T01:59:01.554Z,143.37
2019-05-20T02:01:30.118Z,138.47
2019-05-20T02:03:58.785Z,140.90
2019-05-20T02:06:27.442Z,142.97
2019-05-20T02:08:56.078Z,127.77
2019-05-20T02:11:24.825Z,141.27
2019-05-20T02:14:00.174Z,129.17
2019-05-20T02:16:28.958Z,126.47
2019-05-20T02:18:57.549Z,131.90
2019-05-20T02:21:26.126Z,143.70
2019-05-20T02:23:54.753Z,142.03
2019-05-20T02:26:23.503Z,123.40
2019-05-20T02:28:52.095Z,143.20
2019-05-20T02:31:20.687Z,131.23
2019-05-20T02:33:52.147Z,131.53
2019-05-20T02:36:19.601Z,135.00
2019-05-20T02:38:48.162Z,134.57
2019-05-20T02:41:16.812Z,123.73
2019-05-20T02:43:46.295Z,125.40
2019-05-20T02:46:14.874Z,120.03
2019-05-20T02:48:43.542Z,117.17
2019-05-20T02:51:12.122Z,129.80
2019-05-20T02:53:40.772Z,120.07
2019-05-20T02:56:09.332Z,129.47
2019-05-20T02:58:38.096Z,124.63
2019-05-20T03:01:06.731Z,126.60
2019-05-20T03:03:35.384Z,141.50
2019-05-20T03:06:03.999Z,136.07
2019-05-20T03:08:32.603Z,127.57
2019-05-20T03:11:01.286Z,149.35
2019-05-20T03:13:29.905Z,140.00
2019-05-20T03:15:58.501Z,123.87
2019-05-20T03:18:27.106Z,126.73
2019-05-20T03:20:56.901Z,122.20
2019-05-20T03:23:25.500Z,116.27
2019-05-20T03:25:54.136Z,126.93
2019-05-20T03:28:22.755Z,109.67
2019-05-20T03:30:51.300Z,120.50
2019-05-20T03:33:19.867Z,118.80
2019-05-20T03:35:48.582Z,115.77
2019-05-20T03:38:17.197Z,120.47
2019-05-20T03:40:45.826Z,109.50
2019-05-20T03:43:14.391Z,112.00
2019-05-20T03:45:42.962Z,108.37
2019-05-20T03:48:11.515Z,103.80
2019-05-20T03:50:40.098Z,117.60
2019-05-20T03:53:08.706Z,108.67
2019-05-20T03:55:37.308Z,105.47
2019-05-20T03:58:05.862Z,106.77
2019-05-20T04:00:44.802Z,114.77
2019-05-20T04:03:13.718Z,114.33
2019-05-20T04:05:42.470Z,116.93
2019-05-20T04:08:11.133Z,107.97
2019-05-20T04:10:39.689Z,114.20
2019-05-20T04:13:08.259Z,109.20
2019-05-20T04:15:36.822Z,111.07
2019-05-20T04:18:05.406Z,110.67
2019-05-20T04:20:33.959Z,110.67
2019-05-20T04:23:02.534Z,104.43
2019-05-20T04:25:31.363Z,117.10
2019-05-20T04:27:59.982Z,114.50
2019-05-20T04:30:28.672Z,104.47
2019-05-20T04:32:57.334Z,112.07
2019-05-20T04:35:25.983Z,114.13
2019-05-20T04:37:54.553Z,110.00
2019-05-20T04:40:23.179Z,120.70
2019-05-20T04:42:51.769Z,121.33
2019-05-20T04:45:20.400Z,114.17
2019-05-20T04:47:48.984Z,119.70
2019-05-20T04:50:17.575Z,127.07
2019-05-20T04:52:46.200Z,124.53
2019-05-20T04:55:14.761Z,121.63
2019-05-20T04:57:43.347Z,118.50
2019-05-20T05:00:13.453Z,126.30
2019-05-20T05:02:44.003Z,107.87
2019-05-20T05:05:12.829Z,113.27
2019-05-20T05:07:41.494Z,107.13
2019-05-20T05:10:10.303Z,112.80
2019-05-20T05:12:38.888Z,100.20
2019-05-20T05:15:08.910Z,107.00
2019-05-20T05:17:37.667Z,100.13
2019-05-20T05:20:06.369Z,106.12
2019-05-20T05:22:34.917Z,100.30
2019-05-20T05:25:03.522Z,84.43
2019-05-20T05:27:32.226Z,97.27
2019-05-20T05:30:00.720Z,80.97
2019-05-20T05:32:41.903Z,72.17
2019-05-20T05:35:11.482Z,73.27
2019-05-20T05:37:40.040Z,72.70
2019-05-20T05:40:08.859Z,66.87
2019-05-20T05:42:43.410Z,70.80
2019-05-20T05:45:19.333Z,65.20
2019-05-20T05:47:48.056Z,66.30
2019-05-20T05:50:17.019Z,69.50
2019-05-20T05:52:48.663Z,67.43
2019-05-20T05:55:17.247Z,69.40
2019-05-20T05:57:45.725Z,70.23
2019-05-20T06:00:14.351Z,60.87
2019-05-20T06:02:46.292Z,69.07
2019-05-20T06:05:14.877Z,65.80
2019-05-20T06:07:43.511Z,71.37
2019-05-20T06:10:12.964Z,61.83
2019-05-20T06:12:41.600Z,67.53
2019-05-20T06:15:10.852Z,64.43
2019-05-20T06:17:39.441Z,60.03
2019-05-20T06:20:08.625Z,63.10
2019-05-20T06:22:37.227Z,63.53
2019-05-20T06:25:05.875Z,66.47
2019-05-20T06:27:34.541Z,63.00
2019-05-20T06:30:03.199Z,68.78
2019-05-20T06:32:31.848Z,64.80
2019-05-20T06:35:00.500Z,58.57
2019-05-20T06:37:30.906Z,66.70
2019-05-20T06:39:59.485Z,55.30
2019-05-20T06:42:28.059Z,59.27
2019-05-20T06:44:57.443Z,61.80
2019-05-20T06:47:26.524Z,58.33
2019-05-20T06:49:55.188Z,61.73
2019-05-20T06:52:35.500Z,59.00
2019-05-20T06:54:54.122Z,57.63
2019-05-20T06:57:23.979Z,60.73
2019-05-20T06:59:52.726Z,65.63
2019-05-20T07:02:21.240Z,64.03
2019-05-20T07:04:49.862Z,56.97
2019-05-20T07:07:21.295Z,58.73
2019-05-20T07:09:48.742Z,55.87
2019-05-20T07:12:17.388Z,51.27
2019-05-20T07:15:05.169Z,52.40
2019-05-20T07:17:33.790Z,51.00
2019-05-20T07:20:02.397Z,49.67
2019-05-20T07:22:55.700Z,48.00
2019-05-20T07:25:20.304Z,50.17
2019-05-20T07:27:48.892Z,52.40
2019-05-20T07:30:17.589Z,52.37
2019-05-20T07:32:46.307Z,59.37
2019-05-20T07:35:28.834Z,55.63
2019-05-20T07:37:45.375Z,53.20
2019-05-20T07:40:55.271Z,50.63
2019-05-20T07:43:23.839Z,50.03
2019-05-20T07:45:52.423Z,51.13
2019-05-20T07:48:21.505Z,50.17
2019-05-20T07:50:50.466Z,50.47
2019-05-20T07:53:19.423Z,53.73
2019-05-20T07:55:52.520Z,50.87
2019-05-20T07:58:27.218Z,46.67
2019-05-20T08:00:57.777Z,53.23
2019-05-20T08:03:38.852Z,53.57
2019-05-20T08:06:11.302Z,49.10
2019-05-20T08:08:40.324Z,52.47
2019-05-20T08:11:09.166Z,49.83
2019-05-20T08:13:38.186Z,41.97
2019-05-20T08:16:07.030Z,42.80
2019-05-20T08:18:56.944Z,47.17
2019-05-20T08:21:25.902Z,43.70
2019-05-20T08:23:54.654Z,40.43
2019-05-20T08:26:24.410Z,46.20
2019-05-20T08:28:53.157Z,41.17
2019-05-20T08:31:21.715Z,37.27
2019-05-20T08:33:50.531Z,39.97
2019-05-20T08:36:19.261Z,37.53
2019-05-20T08:38:47.984Z,34.03
2019-05-20T08:41:16.516Z,36.80
2019-05-20T08:43:45.345Z,36.77
2019-05-20T08:46:14.199Z,37.50
2019-05-20T08:48:42.874Z,37.43
2019-05-20T08:51:11.683Z,47.23
2019-05-20T08:53:40.287Z,36.03
2019-05-20T08:56:09.144Z,39.27
2019-05-20T08:58:38.016Z,39.83
2019-05-20T09:01:07.530Z,34.73
2019-05-20T09:03:37.065Z,35.57
2019-05-20T09:06:05.583Z,33.57
2019-05-20T09:08:34.855Z,36.33
2019-05-20T09:11:03.967Z,34.83
2019-05-20T09:13:33.105Z,37.47
2019-05-20T09:16:02.268Z,36.20
2019-05-20T09:18:31.532Z,36.50
2019-05-20T09:21:00.835Z,35.70
2019-05-20T09:23:30.187Z,34.07
2019-05-20T09:26:18.447Z,34.17
2019-05-20T09:28:47.550Z,32.43
2019-05-20T09:31:18.328Z,35.90
2019-05-20T09:33:47.668Z,38.53
2019-05-20T09:36:16.950Z,38.93
2019-05-20T09:38:46.016Z,40.10
2019-05-20T09:41:15.158Z,42.43
2019-05-20T09:43:47.888Z,45.43
2019-05-20T09:46:17.237Z,42.17
2019-05-20T09:48:47.292Z,41.57
2019-05-20T09:51:16.529Z,43.60
2019-05-20T09:53:45.863Z,38.13
2019-05-20T09:56:15.241Z,37.67
2019-05-20T09:58:44.674Z,41.03
2019-05-20T10:01:14.247Z,42.98
2019-05-20T10:03:43.959Z,35.63
2019-05-20T10:06:13.420Z,40.50
2019-05-20T10:08:59.989Z,39.33
2019-05-20T10:11:30.275Z,31.73
2019-05-20T10:13:59.699Z,32.77
2019-05-20T10:16:29.097Z,36.50
2019-05-20T10:18:58.498Z,34.10
2019-05-20T10:21:27.674Z,31.90
2019-05-20T10:23:56.922Z,30.87
2019-05-20T10:26:25.999Z,34.50
2019-05-20T10:28:55.516Z,33.47
2019-05-20T10:31:25.135Z,31.33
2019-05-20T10:33:54.907Z,33.17
2019-05-20T10:39:56.850Z,29.30
2019-05-20T10:42:26.663Z,32.27
2019-05-20T10:44:56.154Z,29.10
2019-05-20T10:47:25.416Z,32.60
2019-05-20T10:49:54.538Z,27.17
2019-05-20T10:52:23.606Z,30.20
2019-05-20T10:54:52.715Z,27.00
2019-05-20T10:57:21.878Z,28.00
2019-05-20T10:59:51.325Z,29.53
2019-05-20T11:02:24.805Z,31.60
2019-05-20T11:04:54.286Z,32.07
2019-05-20T11:07:24.158Z,33.63
2019-05-20T11:09:53.767Z,32.53
2019-05-20T11:12:23.170Z,30.17
2019-05-20T11:14:52.441Z,33.20
2019-05-20T11:17:21.534Z,30.10
2019-05-20T11:19:50.579Z,28.73
2019-05-20T11:22:19.798Z,31.43
2019-05-20T11:24:49.185Z,30.87
2019-05-20T11:27:18.513Z,34.23
2019-05-20T11:29:48.012Z,36.23
2019-05-20T11:32:17.359Z,27.33
2019-05-20T11:34:47.342Z,29.70
2019-05-20T11:37:17.156Z,27.67
2019-05-20T11:39:46.583Z,28.33
2019-05-20T11:42:15.999Z,25.63
2019-05-20T11:44:45.201Z,28.40
2019-05-20T11:47:14.294Z,27.67
2019-05-20T11:49:43.401Z,25.77
2019-05-20T11:52:13.635Z,23.60
2019-05-20T11:54:42.703Z,21.03
2019-05-20T11:57:11.823Z,24.43
2019-05-20T11:59:40.941Z,21.67
2019-05-20T12:02:10.107Z,21.67
2019-05-20T12:04:38.657Z,23.27
2019-05-20T12:07:08.654Z,21.67
2019-05-20T12:09:48.882Z,21.27
2019-05-20T12:12:09.087Z,23.80
2019-05-20T12:14:38.210Z,22.93
2019-05-20T12:17:08.212Z,27.10
2019-05-20T12:19:37.401Z,24.80
2019-05-20T12:22:06.717Z,26.03
2019-05-20T12:24:36.898Z,25.87
2019-05-20T12:27:06.412Z,27.17
2019-05-20T12:29:35.786Z,28.13
2019-05-20T12:32:05.171Z,27.63
2019-05-20T12:34:34.567Z,26.20
2019-05-20T12:37:04.231Z,30.23
2019-05-20T12:39:33.853Z,32.57
2019-05-20T12:42:03.445Z,33.53
2019-05-20T12:44:32.913Z,31.73
2019-05-20T12:47:02.274Z,33.67
2019-05-20T12:49:31.887Z,33.70
2019-05-20T12:52:01.401Z,33.30
2019-05-20T12:54:31.176Z,31.47
2019-05-20T12:57:00.621Z,32.97
2019-05-20T12:59:29.780Z,34.20
2019-05-20T13:01:58.889Z,28.83
2019-05-20T13:04:28.002Z,30.33
2019-05-20T13:06:57.309Z,28.87
2019-05-20T13:09:26.465Z,36.83
2019-05-20T13:11:55.643Z,30.27
2019-05-20T13:14:24.783Z,36.07
2019-05-20T13:16:53.803Z,37.83
2019-05-20T13:19:22.901Z,34.13
2019-05-20T13:21:51.984Z,41.47
2019-05-20T13:24:21.094Z,40.57
2019-05-20T13:26:51.740Z,39.58
2019-05-20T13:29:20.860Z,40.80
2019-05-20T13:31:49.959Z,40.90
2019-05-20T13:34:19.115Z,37.93
2019-05-20T13:36:48.420Z,38.00
2019-05-20T13:39:17.521Z,44.07
2019-05-20T13:41:46.636Z,39.57
2019-05-20T13:44:15.775Z,38.90
2019-05-20T13:46:44.858Z,39.17
2019-05-20T13:49:14.326Z,37.73
2019-05-20T13:51:51.309Z,37.53
2019-05-20T13:54:30.201Z,35.67
2019-05-20T13:56:59.335Z,38.90
2019-05-20T13:59:28.428Z,37.10
2019-05-20T14:01:58.759Z,37.73
2019-05-20T14:04:27.878Z,35.50
2019-05-20T14:06:56.979Z,36.60
2019-05-20T14:09:26.099Z,35.07
2019-05-20T14:11:55.161Z,36.93
2019-05-20T14:14:28.533Z,35.30
2019-05-20T14:16:59.729Z,34.97
2019-05-20T14:19:28.827Z,37.57
2019-05-20T14:21:57.992Z,33.67
2019-05-20T14:24:27.124Z,35.37
2019-05-20T14:26:56.212Z,34.80
2019-05-20T14:29:25.423Z,36.03
2019-05-20T14:31:54.624Z,36.93
2019-05-20T14:34:24.737Z,36.88
2019-05-20T14:36:53.936Z,34.40
2019-05-20T14:39:23.563Z,34.00
2019-05-20T14:41:52.905Z,35.67
2019-05-20T14:44:22.024Z,37.70
2019-05-20T14:46:51.200Z,33.37
2019-05-20T14:49:20.339Z,34.03
2019-05-20T14:51:49.467Z,33.57
2019-05-20T14:54:18.673Z,34.47
2019-05-20T14:56:47.833Z,39.83
2019-05-20T14:59:17.076Z,35.63
2019-05-20T15:01:46.249Z,39.63
2019-05-20T15:04:15.670Z,39.33
2019-05-20T15:06:44.778Z,38.80
2019-05-20T15:09:16.198Z,39.93
2019-05-20T15:11:45.347Z,40.80
2019-05-20T15:14:17.313Z,39.67
2019-05-20T15:16:46.414Z,38.87
2019-05-20T15:19:15.578Z,41.73
2019-05-20T15:21:44.676Z,40.73
2019-05-20T15:24:13.833Z,43.47
2019-05-20T15:26:43.254Z,44.27
2019-05-20T15:29:27.053Z,43.70
2019-05-20T15:31:43.355Z,44.80
2019-05-20T15:34:12.528Z,41.27
2019-05-20T15:36:41.702Z,44.87
2019-05-20T15:39:10.913Z,42.27
2019-05-20T15:41:40.050Z,41.20
2019-05-20T15:44:09.179Z,37.37
2019-05-20T15:46:38.276Z,36.93
2019-05-20T15:49:07.436Z,41.57
2019-05-20T15:51:36.592Z,41.63
2019-05-20T15:54:05.685Z,39.93
2019-05-20T15:56:34.829Z,45.87
2019-05-20T15:59:03.924Z,45.20
2019-05-20T16:01:33.078Z,46.60
2019-05-20T16:04:02.279Z,46.30
2019-05-20T16:06:31.443Z,46.73
2019-05-20T16:09:00.552Z,46.97
2019-05-20T16:11:29.728Z,49.20
2019-05-20T16:14:00.265Z,51.20
2019-05-20T16:16:29.340Z,45.57
2019-05-20T16:18:58.613Z,56.50
2019-05-20T16:21:27.912Z,57.83
2019-05-20T16:23:59.325Z,54.10
2019-05-20T16:26:30.083Z,55.93
2019-05-20T16:29:01.321Z,55.03
2019-05-20T16:31:30.490Z,54.80
2019-05-20T16:33:59.835Z,55.87
2019-05-20T16:36:29.001Z,57.33
2019-05-20T16:38:58.071Z,51.63
2019-05-20T16:41:27.279Z,53.93
2019-05-20T16:43:56.381Z,54.67
2019-05-20T16:46:25.463Z,56.17
2019-05-20T16:48:54.678Z,53.98
2019-05-20T16:51:23.805Z,54.80
2019-05-20T16:53:52.915Z,49.50
2019-05-20T16:56:22.026Z,48.23
2019-05-20T16:58:51.158Z,52.50
2019-05-20T17:01:20.287Z,56.00
2019-05-20T17:03:54.236Z,54.23
2019-05-20T17:06:23.481Z,51.30
2019-05-20T17:08:53.021Z,49.23
2019-05-20T17:11:22.158Z,50.33
2019-05-20T17:13:51.311Z,46.80
2019-05-20T17:16:20.518Z,44.57
2019-05-20T17:18:49.576Z,53.37
2019-05-20T17:21:18.690Z,51.97
2019-05-20T17:23:47.804Z,48.43
2019-05-20T17:26:16.936Z,51.73
2019-05-20T17:28:46.014Z,51.33
2019-05-20T17:31:15.219Z,86.63
2019-05-20T17:33:44.314Z,50.93
2019-05-20T17:36:39.961Z,50.47
2019-05-20T17:39:09.274Z,50.03
2019-05-20T17:41:38.443Z,50.53
2019-05-20T17:44:10.672Z,47.70
2019-05-20T17:46:39.954Z,46.07
2019-05-20T17:49:09.151Z,48.90
2019-05-20T17:51:43.268Z,48.10
2019-05-20T17:54:11.239Z,46.50
2019-05-20T17:56:40.802Z,46.92
2019-05-20T17:59:11.948Z,44.33
2019-05-20T18:01:41.044Z,44.93
2019-05-20T18:04:10.575Z,41.93
2019-05-20T18:06:39.881Z,46.50
2019-05-20T18:09:09.229Z,44.10
2019-05-20T18:11:38.876Z,41.37
2019-05-20T18:14:08.005Z,47.30
2019-05-20T18:16:37.216Z,46.57
2019-05-20T18:19:06.431Z,40.40
2019-05-20T18:21:35.559Z,44.43
2019-05-20T18:24:04.639Z,45.00
2019-05-20T18:26:33.783Z,43.00
2019-05-20T18:29:02.986Z,42.53
2019-05-20T18:31:33.076Z,44.60
2019-05-20T18:34:02.604Z,41.20
2019-05-20T18:36:31.755Z,38.57
2019-05-20T18:39:00.977Z,41.13
2019-05-20T18:41:30.115Z,36.53
2019-05-20T18:43:59.201Z,35.43
2019-05-20T18:46:28.319Z,34.93
2019-05-20T18:48:57.416Z,39.87
2019-05-20T18:51:26.549Z,36.70
2019-05-20T18:53:55.650Z,37.50
2019-05-20T18:56:24.768Z,36.90
2019-05-20T18:58:54.067Z,32.70
2019-05-20T19:01:23.177Z,36.60
2019-05-20T19:03:52.259Z,38.33
2019-05-20T19:06:21.544Z,36.47
2019-05-20T19:08:50.680Z,41.93
